createdAt,value
2019-03-11T00:00:08.184Z,4.5
2019-03-11T00:01:08.211Z,4.5
2019-03-11T00:02:08.211Z,4.6
2019-03-11T00:03:08.199Z,4.6
2019-03-11T00:04:08.946Z,4.6
2019-03-11T00:05:08.235Z,4.6
2019-03-11T00:06:08.221Z,4.6
2019-03-11T00:07:08.294Z,4.5
2019-03-11T00:08:08.246Z,4.6
2019-03-11T00:09:08.238Z,4.6
2019-03-11T00:10:08.263Z,4.5
2019-03-11T00:11:08.299Z,4.5
2019-03-11T00:12:08.278Z,4.6
2019-03-11T00:13:08.318Z,4.6
2019-03-11T00:14:08.266Z,4.6
2019-03-11T00:15:08.323Z,4.6
2019-03-11T00:16:08.299Z,4.6
2019-03-11T00:17:08.314Z,4.6
2019-03-11T00:18:08.328Z,4.6
2019-03-11T00:19:08.324Z,4.6
2019-03-11T00:20:08.327Z,4.6
2019-03-11T00:21:08.342Z,4.6
2019-03-11T00:22:08.388Z,4.6
2019-03-11T00:23:08.391Z,4.6
2019-03-11T00:24:08.358Z,4.6
2019-03-11T00:25:08.363Z,4.6
2019-03-11T00:26:08.400Z,4.5
2019-03-11T00:27:08.400Z,4.6
2019-03-11T00:28:08.407Z,4.5
2019-03-11T00:29:08.411Z,4.6
2019-03-11T00:30:08.392Z,4.5
2019-03-11T00:31:08.440Z,4.5
2019-03-11T00:32:08.463Z,4.5
2019-03-11T00:33:08.419Z,4.5
2019-03-11T00:34:08.420Z,4.5
2019-03-11T00:35:08.471Z,4.5
2019-03-11T00:36:08.575Z,4.5
2019-03-11T00:37:08.448Z,4.5
2019-03-11T00:38:08.472Z,4.5
2019-03-11T00:39:08.462Z,4.5
2019-03-11T00:40:08.486Z,4.6
2019-03-11T00:41:08.482Z,4.5
2019-03-11T00:42:08.487Z,4.5
2019-03-11T00:43:08.498Z,4.5
2019-03-11T00:44:08.514Z,4.5
2019-03-11T00:45:08.528Z,4.5
2019-03-11T00:46:08.528Z,4.5
2019-03-11T00:47:08.534Z,4.5
2019-03-11T00:48:08.552Z,4.5
2019-03-11T00:49:08.544Z,4.5
2019-03-11T00:50:08.543Z,4.5
2019-03-11T00:51:08.546Z,4.5
2019-03-11T00:52:08.552Z,4.5
2019-03-11T00:53:08.571Z,4.5
2019-03-11T00:54:08.602Z,4.5
2019-03-11T00:55:08.768Z,4.5
2019-03-11T00:56:08.623Z,4.5
2019-03-11T00:57:08.595Z,4.4
2019-03-11T00:58:08.628Z,4.4
2019-03-11T00:59:08.593Z,4.4
2019-03-11T01:00:08.622Z,4.4
2019-03-11T01:01:08.616Z,4.4
2019-03-11T01:02:11.140Z,4.4
2019-03-11T01:03:08.619Z,4.4
2019-03-11T01:04:08.621Z,4.4
2019-03-11T01:05:09.223Z,4.4
2019-03-11T01:06:08.677Z,4.4
2019-03-11T01:07:08.700Z,4.4
2019-03-11T01:08:08.686Z,4.4
2019-03-11T01:09:08.677Z,4.4
2019-03-11T01:10:08.725Z,4.4
2019-03-11T01:11:08.810Z,4.3
2019-03-11T01:12:08.693Z,4.3
2019-03-11T01:13:08.712Z,4.3
2019-03-11T01:14:08.735Z,4.3
2019-03-11T01:15:08.723Z,4.3
2019-03-11T01:16:08.711Z,4.3
2019-03-11T01:17:08.745Z,4.3
2019-03-11T01:18:08.732Z,4.3
2019-03-11T01:19:08.734Z,4.3
2019-03-11T01:20:08.748Z,4.3
2019-03-11T01:21:08.760Z,4.3
2019-03-11T01:22:08.756Z,4.3
2019-03-11T01:23:08.747Z,4.3
2019-03-11T01:24:08.767Z,4.3
2019-03-11T01:25:08.744Z,4.3
2019-03-11T01:26:08.764Z,4.4
2019-03-11T01:27:08.746Z,4.4
2019-03-11T01:28:08.748Z,4.4
2019-03-11T01:29:08.760Z,4.4
2019-03-11T01:30:08.789Z,4.4
2019-03-11T01:31:08.753Z,4.4
2019-03-11T01:32:08.767Z,4.4
2019-03-11T01:33:08.796Z,4.4
2019-03-11T01:34:08.772Z,4.4
2019-03-11T01:35:08.872Z,4.4
2019-03-11T01:36:08.781Z,4.4
2019-03-11T01:37:08.784Z,4.4
2019-03-11T01:38:08.784Z,4.4
2019-03-11T01:39:08.790Z,4.4
2019-03-11T01:40:08.833Z,4.3
2019-03-11T01:41:08.808Z,4.3
2019-03-11T01:42:08.842Z,4.3
2019-03-11T01:43:08.802Z,4.3
2019-03-11T01:44:08.818Z,4.3
2019-03-11T01:45:08.845Z,4.3
2019-03-11T01:46:08.818Z,4.3
2019-03-11T01:47:08.816Z,4.3
2019-03-11T01:48:08.828Z,4.3
2019-03-11T01:49:08.802Z,4.3
2019-03-11T01:50:09.001Z,4.3
2019-03-11T01:51:09.009Z,4.3
2019-03-11T01:52:11.035Z,4.3
2019-03-11T01:53:08.820Z,4.3
2019-03-11T01:54:08.836Z,4.3
2019-03-11T01:55:08.853Z,4.3
2019-03-11T01:56:08.877Z,4.4
2019-03-11T01:57:08.850Z,4.4
2019-03-11T01:58:08.868Z,4.4
2019-03-11T01:59:08.860Z,4.4
2019-03-11T02:00:08.892Z,4.4
2019-03-11T02:01:08.892Z,4.4
2019-03-11T02:02:08.909Z,4.4
2019-03-11T02:03:08.936Z,4.4
2019-03-11T02:04:08.963Z,4.4
2019-03-11T02:05:08.888Z,4.4
2019-03-11T02:06:08.923Z,4.4
2019-03-11T02:07:08.965Z,4.4
2019-03-11T02:08:08.900Z,4.4
2019-03-11T02:09:08.902Z,4.4
2019-03-11T02:10:08.922Z,4.4
2019-03-11T02:11:08.914Z,4.4
2019-03-11T02:12:09.078Z,4.4
2019-03-11T02:13:08.937Z,4.4
2019-03-11T02:14:08.908Z,4.4
2019-03-11T02:15:08.969Z,4.4
2019-03-11T02:16:08.921Z,4.4
2019-03-11T02:17:08.924Z,4.4
2019-03-11T02:18:08.927Z,4.4
2019-03-11T02:19:08.935Z,4.4
2019-03-11T02:20:08.935Z,4.4
2019-03-11T02:21:08.945Z,4.4
2019-03-11T02:22:08.956Z,4.4
2019-03-11T02:23:08.983Z,4.4
2019-03-11T02:24:08.961Z,4.4
2019-03-11T02:25:08.963Z,4.4
2019-03-11T02:26:08.962Z,4.4
2019-03-11T02:27:08.978Z,4.4
2019-03-11T02:28:08.955Z,4.4
2019-03-11T02:29:08.981Z,4.4
2019-03-11T02:30:08.979Z,4.4
2019-03-11T02:31:08.966Z,4.4
2019-03-11T02:32:08.986Z,4.4
2019-03-11T02:33:08.999Z,4.4
2019-03-11T02:34:08.981Z,4.4
2019-03-11T02:35:08.985Z,4.4
2019-03-11T02:36:09.021Z,4.4
2019-03-11T02:37:08.990Z,4.4
2019-03-11T02:38:09.033Z,4.4
2019-03-11T02:39:09.569Z,4.4
2019-03-11T02:40:09.023Z,4.4
2019-03-11T02:41:09.005Z,4.5
2019-03-11T02:42:09.023Z,4.5
2019-03-11T02:43:10.074Z,4.5
2019-03-11T02:44:09.031Z,4.5
2019-03-11T02:45:09.041Z,4.5
2019-03-11T02:46:09.034Z,4.5
2019-03-11T02:47:09.033Z,4.5
2019-03-11T02:48:09.051Z,4.5
2019-03-11T02:49:09.068Z,4.6
2019-03-11T02:50:09.093Z,4.6
2019-03-11T02:51:09.095Z,4.6
2019-03-11T02:52:09.063Z,4.6
2019-03-11T02:53:09.152Z,4.6
2019-03-11T02:54:09.105Z,4.6
2019-03-11T02:55:09.158Z,4.6
2019-03-11T02:56:09.082Z,4.6
2019-03-11T02:57:09.126Z,4.6
2019-03-11T02:58:09.150Z,4.6
2019-03-11T02:59:09.141Z,4.6
2019-03-11T03:00:09.115Z,4.6
2019-03-11T03:01:10.178Z,4.6
2019-03-11T03:02:11.358Z,4.6
2019-03-11T03:03:09.158Z,4.6
2019-03-11T03:04:09.110Z,4.6
2019-03-11T03:05:09.164Z,4.6
2019-03-11T03:06:09.140Z,4.6
2019-03-11T03:07:09.166Z,4.6
2019-03-11T03:08:09.165Z,4.6
2019-03-11T03:09:09.170Z,4.6
2019-03-11T03:10:09.166Z,4.7
2019-03-11T03:11:09.156Z,4.7
2019-03-11T03:12:09.197Z,4.7
2019-03-11T03:13:09.218Z,4.7
2019-03-11T03:14:09.165Z,4.7
2019-03-11T03:15:09.234Z,4.7
2019-03-11T03:16:09.176Z,4.7
2019-03-11T03:17:09.203Z,4.7
2019-03-11T03:18:09.189Z,4.7
2019-03-11T03:19:09.197Z,4.8
2019-03-11T03:20:09.209Z,4.8
2019-03-11T03:21:09.195Z,4.8
2019-03-11T03:22:09.215Z,4.8
2019-03-11T03:23:09.268Z,4.8
2019-03-11T03:24:09.181Z,4.8
2019-03-11T03:25:09.265Z,4.8
2019-03-11T03:26:09.260Z,4.8
2019-03-11T03:27:09.190Z,4.8
2019-03-11T03:28:09.372Z,4.8
2019-03-11T03:29:09.323Z,4.8
2019-03-11T03:30:09.246Z,4.8
2019-03-11T03:31:09.242Z,4.8
2019-03-11T03:32:09.254Z,4.8
2019-03-11T03:33:09.305Z,4.8
2019-03-11T03:34:09.277Z,4.8
2019-03-11T03:35:09.284Z,4.9
2019-03-11T03:36:09.275Z,4.9
2019-03-11T03:37:09.299Z,4.9
2019-03-11T03:38:09.283Z,4.9
2019-03-11T03:39:09.325Z,4.9
2019-03-11T03:40:09.287Z,4.9
2019-03-11T03:41:09.317Z,4.9
2019-03-11T03:42:12.893Z,4.9
2019-03-11T03:43:09.467Z,4.9
2019-03-11T03:44:09.311Z,4.9
2019-03-11T03:45:09.488Z,4.9
2019-03-11T03:46:18.284Z,4.9
2019-03-11T03:47:09.352Z,4.9
2019-03-11T03:48:09.325Z,4.8
2019-03-11T03:49:09.331Z,4.8
2019-03-11T03:50:09.344Z,4.8
2019-03-11T03:51:09.463Z,4.8
2019-03-11T03:52:09.354Z,4.8
2019-03-11T03:53:09.470Z,4.8
2019-03-11T03:54:09.356Z,4.8
2019-03-11T03:55:09.393Z,4.8
2019-03-11T03:56:09.392Z,4.8
2019-03-11T03:57:09.371Z,4.8
2019-03-11T03:58:09.376Z,4.7
2019-03-11T03:59:09.367Z,4.7
2019-03-11T04:00:09.395Z,4.7
2019-03-11T04:01:09.385Z,4.7
2019-03-11T04:02:09.486Z,4.7
2019-03-11T04:03:09.470Z,4.7
2019-03-11T04:04:09.411Z,4.7
2019-03-11T04:05:09.435Z,4.7
2019-03-11T04:06:09.403Z,4.7
2019-03-11T04:07:09.393Z,4.7
2019-03-11T04:08:09.434Z,4.7
2019-03-11T04:09:09.422Z,4.7
2019-03-11T04:10:09.585Z,4.7
2019-03-11T04:11:09.507Z,4.7
2019-03-11T04:12:09.485Z,4.7
2019-03-11T04:13:09.441Z,4.7
2019-03-11T04:14:09.491Z,4.7
2019-03-11T04:15:09.483Z,4.7
2019-03-11T04:16:09.480Z,4.7
2019-03-11T04:17:09.487Z,4.7
2019-03-11T04:18:09.470Z,4.7
2019-03-11T04:19:09.475Z,4.7
2019-03-11T04:20:09.487Z,4.7
2019-03-11T04:21:09.506Z,4.7
2019-03-11T04:22:09.476Z,4.7
2019-03-11T04:23:09.557Z,4.7
2019-03-11T04:24:09.488Z,4.7
2019-03-11T04:25:09.514Z,4.7
2019-03-11T04:26:09.530Z,4.7
2019-03-11T04:27:09.513Z,4.7
2019-03-11T04:28:09.534Z,4.7
2019-03-11T04:29:09.565Z,4.7
2019-03-11T04:30:09.540Z,4.7
2019-03-11T04:31:09.503Z,4.7
2019-03-11T04:32:09.531Z,4.6
2019-03-11T04:33:09.538Z,4.6
2019-03-11T04:34:09.543Z,4.6
2019-03-11T04:35:09.524Z,4.6
2019-03-11T04:36:09.546Z,4.6
2019-03-11T04:37:09.546Z,4.6
2019-03-11T04:38:09.567Z,4.6
2019-03-11T04:39:09.579Z,4.6
2019-03-11T04:40:09.544Z,4.6
2019-03-11T04:41:09.651Z,4.6
2019-03-11T04:42:09.569Z,4.6
2019-03-11T04:43:09.585Z,4.6
2019-03-11T04:44:09.553Z,4.6
2019-03-11T04:45:09.565Z,4.6
2019-03-11T04:46:09.554Z,4.6
2019-03-11T04:47:09.576Z,4.6
2019-03-11T04:48:09.616Z,4.6
2019-03-11T04:49:09.598Z,4.6
2019-03-11T04:50:09.604Z,4.6
2019-03-11T04:51:09.671Z,4.6
2019-03-11T04:52:09.616Z,4.6
2019-03-11T04:53:09.582Z,4.6
2019-03-11T04:54:09.629Z,4.6
2019-03-11T04:55:09.629Z,4.6
2019-03-11T04:56:09.611Z,4.6
2019-03-11T04:57:09.611Z,4.6
2019-03-11T04:58:09.613Z,4.6
2019-03-11T04:59:09.659Z,4.5
2019-03-11T05:00:09.670Z,4.5
2019-03-11T05:01:09.646Z,4.5
2019-03-11T05:02:09.649Z,4.5
2019-03-11T05:03:09.657Z,4.5
2019-03-11T05:04:09.706Z,4.5
2019-03-11T05:05:09.659Z,4.5
2019-03-11T05:06:09.692Z,4.5
2019-03-11T05:07:09.693Z,4.5
2019-03-11T05:08:09.692Z,4.5
2019-03-11T05:09:09.723Z,4.5
2019-03-11T05:10:09.737Z,4.5
2019-03-11T05:11:09.723Z,4.5
2019-03-11T05:12:09.719Z,4.5
2019-03-11T05:13:09.747Z,4.5
2019-03-11T05:14:09.760Z,4.5
2019-03-11T05:15:09.854Z,4.5
2019-03-11T05:16:09.751Z,4.5
2019-03-11T05:17:09.760Z,4.5
2019-03-11T05:18:09.758Z,4.5
2019-03-11T05:19:09.761Z,4.5
2019-03-11T05:20:09.781Z,4.5
2019-03-11T05:21:09.791Z,4.5
2019-03-11T05:22:09.790Z,4.5
2019-03-11T05:23:09.785Z,4.5
2019-03-11T05:24:09.832Z,4.5
2019-03-11T05:25:09.795Z,4.6
2019-03-11T05:26:09.795Z,4.6
2019-03-11T05:27:09.865Z,4.6
2019-03-11T05:28:09.868Z,4.6
2019-03-11T05:29:09.844Z,4.5
2019-03-11T05:30:09.916Z,4.5
2019-03-11T05:31:09.938Z,4.5
2019-03-11T05:32:09.904Z,4.5
2019-03-11T05:33:09.852Z,4.5
2019-03-11T05:34:09.898Z,4.6
2019-03-11T05:35:09.865Z,4.5
2019-03-11T05:36:09.925Z,4.5
2019-03-11T05:37:09.875Z,4.6
2019-03-11T05:38:09.874Z,4.6
2019-03-11T05:39:09.938Z,4.6
2019-03-11T05:40:09.928Z,4.6
2019-03-11T05:41:09.887Z,4.6
2019-03-11T05:42:09.916Z,4.6
2019-03-11T05:43:09.917Z,4.7
2019-03-11T05:44:09.920Z,4.7
2019-03-11T05:45:09.929Z,4.7
2019-03-11T05:46:11.849Z,4.7
2019-03-11T05:47:09.960Z,4.7
2019-03-11T05:48:09.956Z,4.8
2019-03-11T05:49:09.963Z,4.8
2019-03-11T05:50:09.950Z,4.8
2019-03-11T05:51:09.969Z,4.8
2019-03-11T05:52:10.518Z,4.8
2019-03-11T05:53:09.984Z,4.8
2019-03-11T05:54:10.099Z,4.9
2019-03-11T05:55:10.022Z,4.9
2019-03-11T05:56:10.012Z,4.9
2019-03-11T05:57:10.018Z,4.9
2019-03-11T05:58:10.008Z,4.9
2019-03-11T05:59:10.026Z,4.9
2019-03-11T06:00:10.045Z,4.9
2019-03-11T06:01:10.069Z,4.9
2019-03-11T06:02:10.066Z,4.9
2019-03-11T06:03:10.060Z,5
2019-03-11T06:04:10.051Z,5
2019-03-11T06:05:10.088Z,5
2019-03-11T06:06:10.071Z,5
2019-03-11T06:07:10.174Z,5
2019-03-11T06:08:10.086Z,5
2019-03-11T06:09:10.084Z,5
2019-03-11T06:10:10.102Z,5.1
2019-03-11T06:11:10.149Z,5.1
2019-03-11T06:12:10.136Z,5.1
2019-03-11T06:13:10.131Z,5.1
2019-03-11T06:14:10.120Z,5.1
2019-03-11T06:15:10.130Z,5.1
2019-03-11T06:16:10.117Z,5.1
2019-03-11T06:17:10.116Z,5.2
2019-03-11T06:18:10.290Z,5.2
2019-03-11T06:19:10.140Z,5.2
2019-03-11T06:20:10.131Z,5.2
2019-03-11T06:21:10.175Z,5.2
2019-03-11T06:22:10.155Z,5.3
2019-03-11T06:23:10.122Z,5.3
2019-03-11T06:24:10.142Z,5.3
2019-03-11T06:25:10.173Z,5.3
2019-03-11T06:26:10.174Z,5.3
2019-03-11T06:27:10.176Z,5.3
2019-03-11T06:28:10.208Z,5.3
2019-03-11T06:29:10.182Z,5.3
2019-03-11T06:30:10.176Z,5.3
2019-03-11T06:31:10.206Z,5.3
2019-03-11T06:32:10.193Z,5.3
2019-03-11T06:33:10.356Z,5.3
2019-03-11T06:34:10.231Z,5.4
2019-03-11T06:35:10.249Z,5.4
2019-03-11T06:36:10.247Z,5.4
2019-03-11T06:37:10.238Z,5.4
2019-03-11T06:38:10.363Z,5.4
2019-03-11T06:39:10.237Z,5.4
2019-03-11T06:40:10.257Z,5.4
2019-03-11T06:41:10.251Z,5.4
2019-03-11T06:42:11.287Z,5.4
2019-03-11T06:43:10.287Z,5.4
2019-03-11T06:44:10.279Z,5.4
2019-03-11T06:45:10.269Z,5.4
2019-03-11T06:46:10.277Z,5.4
2019-03-11T06:47:10.298Z,5.5
2019-03-11T06:48:10.293Z,5.5
2019-03-11T06:49:10.270Z,5.5
2019-03-11T06:50:10.295Z,5.5
2019-03-11T06:51:10.310Z,5.5
2019-03-11T06:52:10.336Z,5.5
2019-03-11T06:53:10.308Z,5.6
2019-03-11T06:54:10.316Z,5.6
2019-03-11T06:55:10.317Z,5.6
2019-03-11T06:56:10.339Z,5.6
2019-03-11T06:57:12.602Z,5.6
2019-03-11T06:58:10.320Z,5.6
2019-03-11T06:59:10.360Z,5.6
2019-03-11T07:00:10.350Z,5.6
2019-03-11T07:01:10.433Z,5.6
2019-03-11T07:02:10.374Z,5.6
2019-03-11T07:03:10.395Z,5.6
2019-03-11T07:04:10.384Z,5.6
2019-03-11T07:05:19.101Z,5.6
2019-03-11T07:06:10.368Z,5.7
2019-03-11T07:07:10.390Z,5.7
2019-03-11T07:08:10.351Z,5.7
2019-03-11T07:09:10.408Z,5.7
2019-03-11T07:10:10.402Z,5.7
2019-03-11T07:11:10.405Z,5.7
2019-03-11T07:12:10.425Z,5.7
2019-03-11T07:13:10.432Z,5.7
2019-03-11T07:14:10.396Z,5.7
2019-03-11T07:15:10.475Z,5.7
2019-03-11T07:16:10.418Z,5.7
2019-03-11T07:17:10.410Z,5.7
2019-03-11T07:18:10.447Z,5.7
2019-03-11T07:19:10.437Z,5.6
2019-03-11T07:20:10.434Z,5.6
2019-03-11T07:21:10.473Z,5.6
2019-03-11T07:22:10.507Z,5.6
2019-03-11T07:23:10.455Z,5.6
2019-03-11T07:24:10.477Z,5.6
2019-03-11T07:25:10.468Z,5.5
2019-03-11T07:26:10.478Z,5.5
2019-03-11T07:27:10.511Z,5.5
2019-03-11T07:28:10.549Z,5.5
2019-03-11T07:29:10.517Z,5.5
2019-03-11T07:30:10.546Z,5.5
2019-03-11T07:31:10.553Z,5.4
2019-03-11T07:32:10.553Z,5.4
2019-03-11T07:33:10.564Z,5.4
2019-03-11T07:34:10.539Z,5.4
2019-03-11T07:35:10.526Z,5.3
2019-03-11T07:36:10.559Z,5.3
2019-03-11T07:37:10.657Z,5.2
2019-03-11T07:38:10.563Z,5.2
2019-03-11T07:39:10.570Z,5.1
2019-03-11T07:40:10.674Z,5.1
2019-03-11T07:41:10.559Z,5
2019-03-11T07:42:10.587Z,5
2019-03-11T07:43:10.617Z,4.9
2019-03-11T07:44:10.611Z,4.9
2019-03-11T07:45:10.627Z,4.9
2019-03-11T07:46:10.606Z,4.9
2019-03-11T07:47:10.615Z,4.8
2019-03-11T07:48:10.660Z,4.8
2019-03-11T07:49:10.608Z,4.8
2019-03-11T07:50:10.620Z,4.7
2019-03-11T07:51:10.627Z,4.7
2019-03-11T07:52:10.655Z,4.7
2019-03-11T07:53:10.634Z,4.7
2019-03-11T07:54:10.665Z,4.7
2019-03-11T07:55:10.654Z,4.7
2019-03-11T07:56:10.673Z,4.7
2019-03-11T07:57:11.127Z,4.7
2019-03-11T07:58:10.667Z,4.7
2019-03-11T07:59:10.708Z,4.7
2019-03-11T08:00:10.682Z,4.7
2019-03-11T08:01:10.730Z,4.7
2019-03-11T08:02:10.693Z,4.7
2019-03-11T08:03:10.722Z,4.7
2019-03-11T08:04:10.723Z,4.7
2019-03-11T08:05:10.708Z,4.7
2019-03-11T08:06:18.322Z,4.7
2019-03-11T08:07:10.699Z,4.7
2019-03-11T08:08:10.764Z,4.7
2019-03-11T08:09:10.740Z,4.8
2019-03-11T08:10:10.739Z,4.8
2019-03-11T08:11:10.685Z,4.8
2019-03-11T08:12:10.698Z,4.8
2019-03-11T08:13:10.761Z,4.8
2019-03-11T08:14:10.717Z,4.9
2019-03-11T08:15:10.787Z,4.9
2019-03-11T08:16:10.708Z,4.9
2019-03-11T08:17:10.792Z,4.9
2019-03-11T08:18:11.015Z,4.9
2019-03-11T08:19:10.755Z,4.9
2019-03-11T08:20:10.759Z,5
2019-03-11T08:21:10.728Z,5
2019-03-11T08:22:10.761Z,5
2019-03-11T08:23:10.784Z,5
2019-03-11T08:24:10.777Z,5
2019-03-11T08:25:10.751Z,5.1
2019-03-11T08:26:10.768Z,5
2019-03-11T08:27:10.757Z,5
2019-03-11T08:28:11.878Z,5
2019-03-11T08:29:10.761Z,5.1
2019-03-11T08:30:10.798Z,5.1
2019-03-11T08:31:11.073Z,5.1
2019-03-11T08:32:10.788Z,5.1
2019-03-11T08:33:10.789Z,5.1
2019-03-11T08:34:10.782Z,5.1
2019-03-11T08:35:10.893Z,5.1
2019-03-11T08:36:10.821Z,5.1
2019-03-11T08:37:10.808Z,5.1
2019-03-11T08:38:10.816Z,5.1
2019-03-11T08:39:10.873Z,5.1
2019-03-11T08:40:10.801Z,5.1
2019-03-11T08:41:10.823Z,5.1
2019-03-11T08:42:10.799Z,5.1
2019-03-11T08:43:10.793Z,5.1
2019-03-11T08:44:10.800Z,5.1
2019-03-11T08:45:10.833Z,5.1
2019-03-11T08:46:10.805Z,5.1
2019-03-11T08:47:10.890Z,5.1
2019-03-11T08:48:10.841Z,5.1
2019-03-11T08:49:10.845Z,5.1
2019-03-11T08:50:10.859Z,5.1
2019-03-11T08:51:10.877Z,5.1
2019-03-11T08:52:10.883Z,5.1
2019-03-11T08:53:10.945Z,5.2
2019-03-11T08:54:10.936Z,5.2
2019-03-11T08:55:10.937Z,5.2
2019-03-11T08:56:10.971Z,5.2
2019-03-11T08:57:10.970Z,5.2
2019-03-11T08:58:10.968Z,5.2
2019-03-11T08:59:10.968Z,5.2
2019-03-11T09:00:10.963Z,5.3
2019-03-11T09:01:10.979Z,5.3
2019-03-11T09:02:10.996Z,5.3
2019-03-11T09:03:11.588Z,5.4
2019-03-11T09:04:11.097Z,5.5
2019-03-11T09:05:11.062Z,5.6
2019-03-11T09:06:11.050Z,5.7
2019-03-11T09:07:11.161Z,5.8
2019-03-11T09:08:11.090Z,5.9
2019-03-11T09:09:11.100Z,5.9
2019-03-11T09:10:11.120Z,6
2019-03-11T09:11:11.112Z,6.1
2019-03-11T09:12:11.314Z,6.1
2019-03-11T09:13:11.123Z,6.2
2019-03-11T09:14:11.257Z,6.2
2019-03-11T09:15:11.201Z,6.2
2019-03-11T09:16:11.188Z,6.3
2019-03-11T09:17:11.229Z,6.3
2019-03-11T09:18:11.276Z,6.3
2019-03-11T09:19:11.225Z,6.3
2019-03-11T09:20:11.241Z,6.4
2019-03-11T09:21:11.254Z,6.4
2019-03-11T09:22:11.280Z,6.4
2019-03-11T09:23:11.393Z,6.4
2019-03-11T09:24:18.940Z,6.4
2019-03-11T09:25:11.330Z,6.4
2019-03-11T09:26:11.300Z,6.4
2019-03-11T09:27:11.348Z,6.4
2019-03-11T09:28:11.331Z,6.5
2019-03-11T09:29:11.392Z,6.5
2019-03-11T09:30:11.408Z,6.5
2019-03-11T09:31:11.369Z,6.5
2019-03-11T09:32:11.444Z,6.5
2019-03-11T09:33:11.504Z,6.5
2019-03-11T09:34:11.416Z,6.5
2019-03-11T09:35:11.435Z,6.6
2019-03-11T09:36:11.482Z,6.6
2019-03-11T09:37:11.462Z,6.6
2019-03-11T09:38:11.517Z,6.7
2019-03-11T09:39:11.467Z,6.7
2019-03-11T09:40:11.473Z,6.7
2019-03-11T09:41:11.492Z,6.7
2019-03-11T09:42:11.523Z,6.8
2019-03-11T09:43:11.577Z,6.9
2019-03-11T09:44:11.634Z,7
2019-03-11T09:45:11.538Z,7.1
2019-03-11T09:46:11.572Z,7.3
2019-03-11T09:47:11.574Z,7.4
2019-03-11T09:48:11.563Z,7.5
2019-03-11T09:49:11.593Z,7.6
2019-03-11T09:50:11.642Z,7.7
2019-03-11T09:51:11.618Z,7.8
2019-03-11T09:52:11.610Z,7.9
2019-03-11T09:53:11.625Z,8
2019-03-11T09:54:11.718Z,8.1
2019-03-11T09:55:11.654Z,8.2
2019-03-11T09:56:11.653Z,8.2
2019-03-11T09:57:11.666Z,8.2
2019-03-11T09:58:11.734Z,8.3
2019-03-11T09:59:11.697Z,8.3
2019-03-11T10:00:11.741Z,8.3
2019-03-11T10:01:11.749Z,8.3
2019-03-11T10:02:12.435Z,8.2
2019-03-11T10:03:11.794Z,8.2
2019-03-11T10:04:11.757Z,8.1
2019-03-11T10:05:11.760Z,8
2019-03-11T10:06:11.792Z,7.9
2019-03-11T10:07:11.788Z,7.9
2019-03-11T10:08:11.837Z,7.9
2019-03-11T10:09:11.785Z,7.9
2019-03-11T10:10:11.825Z,8
2019-03-11T10:11:11.814Z,8
2019-03-11T10:12:14.464Z,8.1
2019-03-11T10:13:11.863Z,8.1
2019-03-11T10:14:11.899Z,8.2
2019-03-11T10:15:11.931Z,8.2
2019-03-11T10:16:11.872Z,8.4
2019-03-11T10:17:11.912Z,8.5
2019-03-11T10:18:11.920Z,8.6
2019-03-11T10:19:11.961Z,8.7
2019-03-11T10:20:11.927Z,8.7
2019-03-11T10:21:11.945Z,8.8
2019-03-11T10:22:12.023Z,8.8
2019-03-11T10:23:11.899Z,8.8
2019-03-11T10:24:11.948Z,8.8
2019-03-11T10:25:11.961Z,8.7
2019-03-11T10:26:11.982Z,8.6
2019-03-11T10:27:11.964Z,8.6
2019-03-11T10:28:12.031Z,8.5
2019-03-11T10:29:11.970Z,8.4
2019-03-11T10:30:11.984Z,8.5
2019-03-11T10:31:11.980Z,8.5
2019-03-11T10:32:12.098Z,8.7
2019-03-11T10:33:12.016Z,8.8
2019-03-11T10:34:12.002Z,8.9
2019-03-11T10:36:12.030Z,9
2019-03-11T10:37:12.043Z,9
2019-03-11T10:38:12.040Z,9
2019-03-11T10:39:12.080Z,9
2019-03-11T10:40:12.114Z,9
2019-03-11T10:41:12.096Z,9
2019-03-11T10:42:12.101Z,9
2019-03-11T10:43:12.141Z,9
2019-03-11T10:44:12.163Z,9
2019-03-11T10:45:12.172Z,9.1
2019-03-11T10:46:12.145Z,9.1
2019-03-11T10:47:12.170Z,9.2
2019-03-11T10:48:12.156Z,9.3
2019-03-11T10:49:12.180Z,9.3
2019-03-11T10:50:12.193Z,9.3
2019-03-11T10:51:12.160Z,9.3
2019-03-11T10:52:12.178Z,9.3
2019-03-11T10:53:12.192Z,9.4
2019-03-11T10:54:12.178Z,9.4
2019-03-11T10:55:12.595Z,9.4
2019-03-11T10:56:12.238Z,9.4
2019-03-11T10:57:12.226Z,9.4
2019-03-11T10:58:12.230Z,9.4
2019-03-11T10:59:12.214Z,9.5
2019-03-11T11:00:12.279Z,9.6
2019-03-11T11:01:12.234Z,9.7
2019-03-11T11:02:12.298Z,9.9
2019-03-11T11:03:12.261Z,10
2019-03-11T11:04:12.277Z,10.1
2019-03-11T11:05:12.268Z,10.2
2019-03-11T11:06:12.262Z,10.3
2019-03-11T11:07:12.276Z,10.3
2019-03-11T11:08:12.270Z,10.3
2019-03-11T11:09:12.297Z,10.3
2019-03-11T11:10:12.351Z,10.2
2019-03-11T11:11:12.280Z,10
2019-03-11T11:12:12.301Z,9.9
2019-03-11T11:13:12.316Z,9.7
2019-03-11T11:14:12.323Z,9.5
2019-03-11T11:15:12.368Z,9.4
2019-03-11T11:16:12.312Z,9.3
2019-03-11T11:17:12.317Z,9.2
2019-03-11T11:18:12.326Z,9.1
2019-03-11T11:19:12.378Z,9.1
2019-03-11T11:20:12.338Z,9.1
2019-03-11T11:21:12.338Z,9.1
2019-03-11T11:22:14.038Z,9.1
2019-03-11T11:23:12.342Z,9.1
2019-03-11T11:24:12.346Z,9.2
2019-03-11T11:25:12.367Z,9.2
2019-03-11T11:26:12.395Z,9.3
2019-03-11T11:27:12.373Z,9.2
2019-03-11T11:28:12.395Z,9.2
2019-03-11T11:29:12.392Z,9.2
2019-03-11T11:30:12.689Z,9.2
2019-03-11T11:31:12.394Z,9.2
2019-03-11T11:32:12.404Z,9.2
2019-03-11T11:33:12.425Z,9.2
2019-03-11T11:34:12.430Z,9.3
2019-03-11T11:35:12.419Z,9.3
2019-03-11T11:36:12.424Z,9.3
2019-03-11T11:37:12.415Z,9.3
2019-03-11T11:38:12.431Z,9.2
2019-03-11T11:39:12.607Z,9.2
2019-03-11T11:40:12.466Z,9.2
2019-03-11T11:41:12.448Z,9.2
2019-03-11T11:42:12.461Z,9.2
2019-03-11T11:43:12.465Z,9.2
2019-03-11T11:44:12.499Z,9.2
2019-03-11T11:45:12.466Z,9.1
2019-03-11T11:46:12.464Z,8.9
2019-03-11T11:47:12.524Z,8.7
2019-03-11T11:48:12.465Z,8.5
2019-03-11T11:49:12.487Z,8.4
2019-03-11T11:50:12.476Z,8.3
2019-03-11T11:51:12.579Z,8.3
2019-03-11T11:52:12.516Z,8.3
2019-03-11T11:53:12.490Z,8.3
2019-03-11T11:54:12.495Z,8.3
2019-03-11T11:55:12.484Z,8.3
2019-03-11T11:56:12.498Z,8.2
2019-03-11T11:57:12.559Z,8.2
2019-03-11T11:58:12.534Z,8.1
2019-03-11T11:59:12.506Z,8
2019-03-11T12:00:12.502Z,8
2019-03-11T12:01:12.504Z,7.9
2019-03-11T12:02:12.513Z,7.8
2019-03-11T12:03:12.514Z,7.7
2019-03-11T12:04:13.560Z,7.7
2019-03-11T12:05:12.549Z,7.7
2019-03-11T12:06:12.580Z,7.8
2019-03-11T12:07:12.610Z,7.8
2019-03-11T12:08:12.543Z,7.9
2019-03-11T12:09:12.569Z,8.1
2019-03-11T12:10:12.542Z,8.2
2019-03-11T12:11:12.563Z,8.2
2019-03-11T12:12:12.545Z,8.2
2019-03-11T12:13:12.570Z,8.2
2019-03-11T12:14:12.533Z,8.2
2019-03-11T12:15:12.571Z,8.2
2019-03-11T12:16:12.592Z,8.2
2019-03-11T12:17:12.594Z,8.3
2019-03-11T12:18:12.581Z,8.4
2019-03-11T12:19:12.618Z,8.4
2019-03-11T12:20:12.627Z,8.5
2019-03-11T12:21:12.582Z,8.6
2019-03-11T12:22:12.570Z,8.6
2019-03-11T12:23:12.568Z,8.7
2019-03-11T12:24:12.865Z,8.7
2019-03-11T12:25:12.561Z,8.7
2019-03-11T12:26:12.575Z,8.7
2019-03-11T12:27:12.607Z,8.7
2019-03-11T12:28:12.608Z,8.8
2019-03-11T12:29:12.587Z,8.8
2019-03-11T12:30:12.610Z,8.8
2019-03-11T12:31:12.581Z,8.8
2019-03-11T12:32:12.655Z,8.8
2019-03-11T12:33:12.617Z,8.8
2019-03-11T12:34:12.603Z,8.8
2019-03-11T12:35:12.605Z,8.8
2019-03-11T12:36:12.606Z,8.8
2019-03-11T12:37:12.627Z,8.8
2019-03-11T12:38:12.605Z,8.8
2019-03-11T12:39:12.619Z,8.8
2019-03-11T12:40:12.629Z,8.8
2019-03-11T12:41:12.643Z,8.8
2019-03-11T12:42:12.939Z,8.7
2019-03-11T12:43:12.656Z,8.8
2019-03-11T12:44:12.655Z,8.7
2019-03-11T12:45:12.653Z,8.7
2019-03-11T12:46:12.918Z,8.7
2019-03-11T12:47:12.633Z,8.7
2019-03-11T12:48:12.653Z,8.8
2019-03-11T12:49:12.652Z,8.8
2019-03-11T12:50:14.701Z,8.9
2019-03-11T12:51:12.643Z,9
2019-03-11T12:52:12.662Z,9.1
2019-03-11T12:53:12.649Z,9.1
2019-03-11T12:54:12.678Z,9.2
2019-03-11T12:55:12.658Z,9.2
2019-03-11T12:56:12.710Z,9.1
2019-03-11T12:57:13.156Z,9
2019-03-11T12:58:12.672Z,8.9
2019-03-11T12:59:12.668Z,8.9
2019-03-11T13:00:12.699Z,8.8
2019-03-11T13:01:12.725Z,8.8
2019-03-11T13:02:12.706Z,8.8
2019-03-11T13:03:12.768Z,8.8
2019-03-11T13:04:12.708Z,8.8
2019-03-11T13:05:12.719Z,8.9
2019-03-11T13:06:12.745Z,8.9
2019-03-11T13:07:12.710Z,8.9
2019-03-11T13:08:13.033Z,8.9
2019-03-11T13:09:12.769Z,8.9
2019-03-11T13:10:12.745Z,8.9
2019-03-11T13:11:12.777Z,8.9
2019-03-11T13:12:12.770Z,9
2019-03-11T13:13:12.820Z,9.1
2019-03-11T13:14:12.736Z,9.1
2019-03-11T13:15:12.783Z,9.2
2019-03-11T13:16:12.785Z,9.2
2019-03-11T13:17:12.769Z,9.3
2019-03-11T13:18:12.783Z,9.4
2019-03-11T13:19:13.754Z,9.5
2019-03-11T13:20:12.782Z,9.6
2019-03-11T13:21:12.823Z,9.6
2019-03-11T13:22:12.819Z,9.5
2019-03-11T13:23:12.820Z,9.5
2019-03-11T13:24:12.819Z,9.4
2019-03-11T13:25:12.834Z,9.3
2019-03-11T13:26:15.035Z,9.2
2019-03-11T13:27:12.840Z,9.1
2019-03-11T13:28:12.866Z,9
2019-03-11T13:29:12.850Z,8.9
2019-03-11T13:30:13.170Z,8.8
2019-03-11T13:31:12.866Z,8.8
2019-03-11T13:32:12.871Z,8.7
2019-03-11T13:33:12.873Z,8.7
2019-03-11T13:34:12.871Z,8.6
2019-03-11T13:35:12.936Z,8.6
2019-03-11T13:36:12.905Z,8.6
2019-03-11T13:37:12.962Z,8.5
2019-03-11T13:38:12.893Z,8.5
2019-03-11T13:39:12.916Z,8.5
2019-03-11T13:40:12.939Z,8.5
2019-03-11T13:41:12.932Z,8.5
2019-03-11T13:42:12.965Z,8.5
2019-03-11T13:43:12.931Z,8.5
2019-03-11T13:44:13.050Z,8.5
2019-03-11T13:45:12.961Z,8.5
2019-03-11T13:46:12.977Z,8.5
2019-03-11T13:47:12.993Z,8.5
2019-03-11T13:48:13.002Z,8.5
2019-03-11T13:49:13.000Z,8.5